sensor_id;sensor_type;location;lat;lon;timestamp;pressure;altitude;pressure_sealevel;temperature;humidity
73003;BME280;61184;54.356;-8.550;2023-02-12T00:01:11;103151.20;;;20.45;33.37
73003;BME280;61184;54.356;-8.550;2023-02-12T00:03:34;103153.39;;;20.94;33.04
73003;BME280;61184;54.356;-8.550;2023-02-12T00:06:00;103146.89;;;21.15;32.65
73003;BME280;61184;54.356;-8.550;2023-02-12T00:08:25;103147.31;;;20.72;33.15
73003;BME280;61184;54.356;-8.550;2023-02-12T00:10:50;103145.90;;;21.45;32.26
73003;BME280;61184;54.356;-8.550;2023-02-12T00:13:16;103150.06;;;21.14;32.51
73003;BME280;61184;54.356;-8.550;2023-02-12T00:15:46;103149.46;;;21.72;31.78
73003;BME280;61184;54.356;-8.550;2023-02-12T00:18:07;103150.77;;;21.72;31.78
73003;BME280;61184;54.356;-8.550;2023-02-12T00:20:37;103145.86;;;21.56;31.65
73003;BME280;61184;54.356;-8.550;2023-02-12T00:22:57;103146.01;;;21.29;31.96
73003;BME280;61184;54.356;-8.550;2023-02-12T00:25:23;103139.40;;;22.00;31.38
73003;BME280;61184;54.356;-8.550;2023-02-12T00:27:52;103141.84;;;21.67;31.67
73003;BME280;61184;54.356;-8.550;2023-02-12T00:30:14;103143.49;;;21.60;31.72
73003;BME280;61184;54.356;-8.550;2023-02-12T00:32:39;103143.50;;;21.39;31.97
73003;BME280;61184;54.356;-8.550;2023-02-12T00:35:07;103147.76;;;21.46;31.84
73003;BME280;61184;54.356;-8.550;2023-02-12T00:37:31;103140.14;;;21.16;32.18
73003;BME280;61184;54.356;-8.550;2023-02-12T00:39:59;103138.46;;;21.14;32.18
73003;BME280;61184;54.356;-8.550;2023-02-12T00:42:21;103140.07;;;21.27;32.02
73003;BME280;61184;54.356;-8.550;2023-02-12T00:44:47;103129.41;;;21.19;32.09
73003;BME280;61184;54.356;-8.550;2023-02-12T00:47:12;103124.35;;;21.00;32.30
73003;BME280;61184;54.356;-8.550;2023-02-12T00:49:38;103124.03;;;21.03;32.25
73003;BME280;61184;54.356;-8.550;2023-02-12T00:52:04;103120.17;;;20.72;32.57
73003;BME280;61184;54.356;-8.550;2023-02-12T00:54:29;103123.07;;;21.01;32.25
73003;BME280;61184;54.356;-8.550;2023-02-12T00:56:56;103119.71;;;21.00;32.22
73003;BME280;61184;54.356;-8.550;2023-02-12T00:59:24;103128.19;;;21.21;32.24
73003;BME280;61184;54.356;-8.550;2023-02-12T01:01:46;103131.72;;;21.02;32.13
73003;BME280;61184;54.356;-8.550;2023-02-12T01:04:10;103130.06;;;20.89;32.31
73003;BME280;61184;54.356;-8.550;2023-02-12T01:06:39;103137.73;;;20.88;32.27
73003;BME280;61184;54.356;-8.550;2023-02-12T01:09:01;103132.85;;;20.87;32.29
73003;BME280;61184;54.356;-8.550;2023-02-12T01:11:27;103129.44;;;20.72;32.41
73003;BME280;61184;54.356;-8.550;2023-02-12T01:13:52;103127.20;;;20.89;32.23
73003;BME280;61184;54.356;-8.550;2023-02-12T01:16:19;103125.16;;;20.93;32.14
73003;BME280;61184;54.356;-8.550;2023-02-12T01:18:43;103124.26;;;21.04;32.30
73003;BME280;61184;54.356;-8.550;2023-02-12T01:21:10;103121.93;;;20.82;32.25
73003;BME280;61184;54.356;-8.550;2023-02-12T01:23:34;103117.48;;;21.02;31.92
73003;BME280;61184;54.356;-8.550;2023-02-12T01:26:02;103113.62;;;20.94;32.03
73003;BME280;61184;54.356;-8.550;2023-02-12T01:28:25;103109.73;;;20.45;32.29
73003;BME280;61184;54.356;-8.550;2023-02-12T01:30:50;103110.97;;;20.71;32.27
73003;BME280;61184;54.356;-8.550;2023-02-12T01:33:17;103107.79;;;21.07;32.03
73003;BME280;61184;54.356;-8.550;2023-02-12T01:35:47;103105.29;;;20.91;32.22
73003;BME280;61184;54.356;-8.550;2023-02-12T01:38:16;103105.98;;;20.83;31.99
73003;BME280;61184;54.356;-8.550;2023-02-12T01:40:40;103107.41;;;20.74;32.08
73003;BME280;61184;54.356;-8.550;2023-02-12T01:43:00;103104.50;;;20.82;31.94
73003;BME280;61184;54.356;-8.550;2023-02-12T01:47:49;103102.41;;;21.00;31.97
73003;BME280;61184;54.356;-8.550;2023-02-12T01:52:43;103102.12;;;20.64;32.11
73003;BME280;61184;54.356;-8.550;2023-02-12T01:55:08;103101.01;;;20.69;32.00
73003;BME280;61184;54.356;-8.550;2023-02-12T01:57:37;103098.16;;;20.78;32.19
73003;BME280;61184;54.356;-8.550;2023-02-12T02:00:07;103099.54;;;20.50;32.24
73003;BME280;61184;54.356;-8.550;2023-02-12T02:02:22;103099.59;;;20.83;32.08
73003;BME280;61184;54.356;-8.550;2023-02-12T02:04:52;103103.37;;;20.52;32.16
73003;BME280;61184;54.356;-8.550;2023-02-12T02:07:13;103099.44;;;20.53;32.10
73003;BME280;61184;54.356;-8.550;2023-02-12T02:09:39;103100.56;;;20.56;32.09
73003;BME280;61184;54.356;-8.550;2023-02-12T02:12:04;103097.32;;;20.46;32.14
73003;BME280;61184;54.356;-8.550;2023-02-12T02:14:31;103093.06;;;20.75;32.09
73003;BME280;61184;54.356;-8.550;2023-02-12T02:17:05;103088.03;;;20.39;32.19
73003;BME280;61184;54.356;-8.550;2023-02-12T02:19:29;103087.40;;;20.60;32.24
73003;BME280;61184;54.356;-8.550;2023-02-12T02:22:06;103087.14;;;20.45;32.09
73003;BME280;61184;54.356;-8.550;2023-02-12T02:24:25;103087.09;;;20.39;32.18
73003;BME280;61184;54.356;-8.550;2023-02-12T02:26:53;103086.51;;;20.37;32.15
73003;BME280;61184;54.356;-8.550;2023-02-12T02:31:33;103088.34;;;20.70;32.02
73003;BME280;61184;54.356;-8.550;2023-02-12T02:33:56;103089.72;;;20.59;32.14
73003;BME280;61184;54.356;-8.550;2023-02-12T02:36:26;103090.93;;;20.50;32.23
73003;BME280;61184;54.356;-8.550;2023-02-12T02:38:49;103095.07;;;20.69;31.97
73003;BME280;61184;54.356;-8.550;2023-02-12T02:41:15;103092.26;;;20.40;32.32
73003;BME280;61184;54.356;-8.550;2023-02-12T02:43:39;103092.72;;;20.19;32.27
73003;BME280;61184;54.356;-8.550;2023-02-12T02:46:04;103089.79;;;20.49;32.16
73003;BME280;61184;54.356;-8.550;2023-02-12T02:48:31;103089.45;;;20.26;32.15
73003;BME280;61184;54.356;-8.550;2023-02-12T02:50:56;103091.56;;;20.39;32.26
73003;BME280;61184;54.356;-8.550;2023-02-12T02:53:28;103087.65;;;20.19;32.18
73003;BME280;61184;54.356;-8.550;2023-02-12T02:55:46;103086.02;;;20.46;32.12
73003;BME280;61184;54.356;-8.550;2023-02-12T02:58:13;103082.39;;;20.49;32.34
73003;BME280;61184;54.356;-8.550;2023-02-12T03:00:39;103079.45;;;20.03;32.33
73003;BME280;61184;54.356;-8.550;2023-02-12T03:03:04;103079.11;;;20.47;32.38
73003;BME280;61184;54.356;-8.550;2023-02-12T03:05:27;103075.29;;;20.11;32.24
73003;BME280;61184;54.356;-8.550;2023-02-12T03:07:52;103073.83;;;20.12;32.47
73003;BME280;61184;54.356;-8.550;2023-02-12T03:10:22;103072.26;;;20.44;32.36
73003;BME280;61184;54.356;-8.550;2023-02-12T03:12:48;103075.41;;;20.14;32.42
73003;BME280;61184;54.356;-8.550;2023-02-12T03:15:10;103075.14;;;20.29;32.22
73003;BME280;61184;54.356;-8.550;2023-02-12T03:17:34;103078.53;;;19.87;32.46
73003;BME280;61184;54.356;-8.550;2023-02-12T03:20:02;103076.36;;;20.41;32.31
73003;BME280;61184;54.356;-8.550;2023-02-12T03:22:27;103073.42;;;20.33;32.42
73003;BME280;61184;54.356;-8.550;2023-02-12T03:24:52;103077.37;;;20.55;32.12
73003;BME280;61184;54.356;-8.550;2023-02-12T03:27:18;103079.86;;;20.05;32.45
73003;BME280;61184;54.356;-8.550;2023-02-12T03:29:39;103076.84;;;20.38;32.34
73003;BME280;61184;54.356;-8.550;2023-02-12T03:32:15;103078.15;;;20.34;32.33
73003;BME280;61184;54.356;-8.550;2023-02-12T03:34:43;103077.50;;;20.14;32.28
73003;BME280;61184;54.356;-8.550;2023-02-12T03:37:00;103079.12;;;20.12;32.28
73003;BME280;61184;54.356;-8.550;2023-02-12T03:39:27;103078.89;;;19.73;32.48
73003;BME280;61184;54.356;-8.550;2023-02-12T03:41:51;103082.16;;;20.01;32.41
73003;BME280;61184;54.356;-8.550;2023-02-12T03:44:20;103078.25;;;20.35;32.27
73003;BME280;61184;54.356;-8.550;2023-02-12T03:46:49;103076.35;;;20.14;32.21
73003;BME280;61184;54.356;-8.550;2023-02-12T03:49:09;103074.61;;;20.01;32.36
73003;BME280;61184;54.356;-8.550;2023-02-12T03:51:43;103072.80;;;20.35;32.27
73003;BME280;61184;54.356;-8.550;2023-02-12T03:53:55;103068.34;;;20.34;32.27
73003;BME280;61184;54.356;-8.550;2023-02-12T03:56:24;103073.02;;;20.45;32.09
73003;BME280;61184;54.356;-8.550;2023-02-12T03:58:46;103071.17;;;20.06;32.57
73003;BME280;61184;54.356;-8.550;2023-02-12T04:01:11;103072.08;;;20.19;32.41
73003;BME280;61184;54.356;-8.550;2023-02-12T04:03:36;103073.56;;;20.09;32.50
73003;BME280;61184;54.356;-8.550;2023-02-12T04:06:02;103074.86;;;19.98;32.33
73003;BME280;61184;54.356;-8.550;2023-02-12T04:08:27;103076.91;;;20.10;32.45
73003;BME280;61184;54.356;-8.550;2023-02-12T04:11:10;103074.45;;;19.61;32.45
73003;BME280;61184;54.356;-8.550;2023-02-12T04:13:23;103075.13;;;20.07;32.49
73003;BME280;61184;54.356;-8.550;2023-02-12T04:15:56;103074.22;;;19.57;32.50
73003;BME280;61184;54.356;-8.550;2023-02-12T04:18:14;103074.26;;;19.76;32.53
73003;BME280;61184;54.356;-8.550;2023-02-12T04:20:45;103078.65;;;20.08;32.41
73003;BME280;61184;54.356;-8.550;2023-02-12T04:23:10;103071.48;;;20.13;32.35
73003;BME280;61184;54.356;-8.550;2023-02-12T04:25:37;103067.60;;;20.16;32.26
73003;BME280;61184;54.356;-8.550;2023-02-12T04:27:56;103062.71;;;19.98;32.51
73003;BME280;61184;54.356;-8.550;2023-02-12T04:30:22;103064.39;;;20.01;32.45
73003;BME280;61184;54.356;-8.550;2023-02-12T04:32:46;103061.84;;;19.97;32.48
73003;BME280;61184;54.356;-8.550;2023-02-12T04:35:12;103060.41;;;19.92;32.55
73003;BME280;61184;54.356;-8.550;2023-02-12T04:37:42;103057.04;;;20.04;32.40
73003;BME280;61184;54.356;-8.550;2023-02-12T04:40:03;103059.21;;;20.02;32.41
73003;BME280;61184;54.356;-8.550;2023-02-12T04:42:24;103060.96;;;20.08;32.31
73003;BME280;61184;54.356;-8.550;2023-02-12T04:44:55;103061.48;;;19.82;32.30
73003;BME280;61184;54.356;-8.550;2023-02-12T04:47:15;103061.98;;;20.00;32.36
73003;BME280;61184;54.356;-8.550;2023-02-12T04:49:41;103064.10;;;20.08;32.27
73003;BME280;61184;54.356;-8.550;2023-02-12T04:52:07;103066.66;;;19.94;32.43
73003;BME280;61184;54.356;-8.550;2023-02-12T04:54:32;103067.16;;;19.94;32.41
73003;BME280;61184;54.356;-8.550;2023-02-12T04:56:57;103066.30;;;19.92;32.43
73003;BME280;61184;54.356;-8.550;2023-02-12T04:59:23;103065.33;;;19.95;32.35
73003;BME280;61184;54.356;-8.550;2023-02-12T05:01:58;103061.75;;;19.96;32.34
73003;BME280;61184;54.356;-8.550;2023-02-12T05:04:17;103057.75;;;19.99;32.28
73003;BME280;61184;54.356;-8.550;2023-02-12T05:06:40;103059.00;;;19.84;32.48
73003;BME280;61184;54.356;-8.550;2023-02-12T05:09:06;103059.08;;;19.63;32.43
73003;BME280;61184;54.356;-8.550;2023-02-12T05:11:46;103055.22;;;19.82;32.47
73003;BME280;61184;54.356;-8.550;2023-02-12T05:14:01;103057.47;;;19.88;32.40
73003;BME280;61184;54.356;-8.550;2023-02-12T05:16:21;103055.68;;;19.91;32.35
73003;BME280;61184;54.356;-8.550;2023-02-12T05:18:47;103058.74;;;19.71;32.59
73003;BME280;61184;54.356;-8.550;2023-02-12T05:21:17;103059.36;;;19.63;32.36
73003;BME280;61184;54.356;-8.550;2023-02-12T05:23:39;103063.91;;;19.54;32.47
73003;BME280;61184;54.356;-8.550;2023-02-12T05:26:05;103063.82;;;19.81;32.43
73003;BME280;61184;54.356;-8.550;2023-02-12T05:28:33;103061.43;;;19.49;32.50
73003;BME280;61184;54.356;-8.550;2023-02-12T05:30:58;103058.81;;;19.76;32.45
73003;BME280;61184;54.356;-8.550;2023-02-12T05:33:34;103058.80;;;19.76;32.41
73003;BME280;61184;54.356;-8.550;2023-02-12T05:38:11;103064.72;;;19.91;32.23
73003;BME280;61184;54.356;-8.550;2023-02-12T05:40:36;103064.49;;;20.10;32.28
73003;BME280;61184;54.356;-8.550;2023-02-12T05:43:07;103064.11;;;19.69;32.50
73003;BME280;61184;54.356;-8.550;2023-02-12T05:45:28;103058.52;;;19.71;32.44
73003;BME280;61184;54.356;-8.550;2023-02-12T05:47:53;103053.75;;;19.81;32.30
73003;BME280;61184;54.356;-8.550;2023-02-12T05:50:18;103051.08;;;19.72;32.43
73003;BME280;61184;54.356;-8.550;2023-02-12T05:52:44;103049.66;;;19.54;32.62
73003;BME280;61184;54.356;-8.550;2023-02-12T05:55:09;103052.50;;;19.67;32.46
73003;BME280;61184;54.356;-8.550;2023-02-12T05:57:47;103052.58;;;19.70;32.40
73003;BME280;61184;54.356;-8.550;2023-02-12T06:00:04;103054.93;;;19.67;32.43
73003;BME280;61184;54.356;-8.550;2023-02-12T06:02:26;103054.44;;;19.72;32.38
73003;BME280;61184;54.356;-8.550;2023-02-12T06:04:51;103051.21;;;19.64;32.43
73003;BME280;61184;54.356;-8.550;2023-02-12T06:07:17;103043.13;;;19.51;32.61
73003;BME280;61184;54.356;-8.550;2023-02-12T06:09:42;103045.02;;;19.96;32.33
73003;BME280;61184;54.356;-8.550;2023-02-12T06:12:08;103043.96;;;19.44;32.36
73003;BME280;61184;54.356;-8.550;2023-02-12T06:14:33;103042.82;;;19.91;32.37
73003;BME280;61184;54.356;-8.550;2023-02-12T06:17:00;103039.32;;;19.58;32.48
73003;BME280;61184;54.356;-8.550;2023-02-12T06:19:24;103033.74;;;19.55;32.49
73003;BME280;61184;54.356;-8.550;2023-02-12T06:21:50;103032.23;;;19.63;32.41
73003;BME280;61184;54.356;-8.550;2023-02-12T06:24:19;103029.61;;;19.61;32.40
73003;BME280;61184;54.356;-8.550;2023-02-12T06:26:41;103027.32;;;19.58;32.42
73003;BME280;61184;54.356;-8.550;2023-02-12T06:29:06;103026.95;;;19.75;32.50
73003;BME280;61184;54.356;-8.550;2023-02-12T06:31:34;103025.30;;;19.45;32.55
73003;BME280;61184;54.356;-8.550;2023-02-12T06:34:00;103025.16;;;19.60;32.36
73003;BME280;61184;54.356;-8.550;2023-02-12T06:36:24;103019.49;;;19.48;32.48
73003;BME280;61184;54.356;-8.550;2023-02-12T06:38:49;103018.24;;;19.58;32.38
73003;BME280;61184;54.356;-8.550;2023-02-12T06:41:18;103015.89;;;19.50;32.45
73003;BME280;61184;54.356;-8.550;2023-02-12T06:43:39;103016.83;;;19.85;32.36
73003;BME280;61184;54.356;-8.550;2023-02-12T06:46:06;103015.38;;;19.57;32.38
73003;BME280;61184;54.356;-8.550;2023-02-12T06:48:31;103012.17;;;19.64;32.25
73003;BME280;61184;54.356;-8.550;2023-02-12T06:53:21;103008.50;;;19.81;32.33
73003;BME280;61184;54.356;-8.550;2023-02-12T06:55:48;103008.08;;;19.79;32.36
73003;BME280;61184;54.356;-8.550;2023-02-12T06:58:13;103009.74;;;19.54;32.34
73003;BME280;61184;54.356;-8.550;2023-02-12T07:00:38;103004.33;;;19.61;32.28
73003;BME280;61184;54.356;-8.550;2023-02-12T07:03:18;103003.81;;;19.35;32.59
73003;BME280;61184;54.356;-8.550;2023-02-12T07:05:29;103005.73;;;19.59;32.29
73003;BME280;61184;54.356;-8.550;2023-02-12T07:07:54;103003.54;;;19.41;32.49
73003;BME280;61184;54.356;-8.550;2023-02-12T07:10:20;103002.84;;;19.39;32.49
73003;BME280;61184;54.356;-8.550;2023-02-12T07:12:47;103000.02;;;19.41;32.48
73003;BME280;61184;54.356;-8.550;2023-02-12T07:15:25;102998.15;;;19.94;32.39
73003;BME280;61184;54.356;-8.550;2023-02-12T07:17:36;103001.34;;;19.35;32.52
73003;BME280;61184;54.356;-8.550;2023-02-12T07:20:02;102999.81;;;19.34;32.54
73003;BME280;61184;54.356;-8.550;2023-02-12T07:22:27;103004.59;;;19.34;32.53
73003;BME280;61184;54.356;-8.550;2023-02-12T07:24:53;103004.43;;;19.34;32.50
73003;BME280;61184;54.356;-8.550;2023-02-12T07:27:19;103009.42;;;19.36;32.49
73003;BME280;61184;54.356;-8.550;2023-02-12T07:29:44;103012.03;;;19.58;32.51
73003;BME280;61184;54.356;-8.550;2023-02-12T07:32:09;103011.36;;;19.53;32.57
73003;BME280;61184;54.356;-8.550;2023-02-12T07:34:37;103010.00;;;19.45;32.67
73003;BME280;61184;54.356;-8.550;2023-02-12T07:37:02;103009.75;;;19.49;32.59
73003;BME280;61184;54.356;-8.550;2023-02-12T07:39:53;103009.36;;;19.48;32.60
73003;BME280;61184;54.356;-8.550;2023-02-12T07:41:55;103007.35;;;19.58;32.43
73003;BME280;61184;54.356;-8.550;2023-02-12T07:44:45;103007.43;;;19.61;32.43
73003;BME280;61184;54.356;-8.550;2023-02-12T07:46:44;103009.66;;;19.34;32.45
73003;BME280;61184;54.356;-8.550;2023-02-12T07:49:12;103009.77;;;19.16;32.64
73003;BME280;61184;54.356;-8.550;2023-02-12T07:51:34;103008.24;;;19.39;32.67
73003;BME280;61184;54.356;-8.550;2023-02-12T07:54:00;103011.53;;;19.28;32.50
73003;BME280;61184;54.356;-8.550;2023-02-12T07:56:26;103004.44;;;19.09;32.70
73003;BME280;61184;54.356;-8.550;2023-02-12T07:58:52;103004.58;;;19.25;32.50
73003;BME280;61184;54.356;-8.550;2023-02-12T08:01:27;103009.06;;;19.28;32.47
73003;BME280;61184;54.356;-8.550;2023-02-12T08:03:41;103008.25;;;19.38;32.62
73003;BME280;61184;54.356;-8.550;2023-02-12T08:06:08;103009.02;;;19.44;32.54
73003;BME280;61184;54.356;-8.550;2023-02-12T08:08:32;103008.06;;;19.40;32.56
73003;BME280;61184;54.356;-8.550;2023-02-12T08:10:57;103012.13;;;19.53;32.40
73003;BME280;61184;54.356;-8.550;2023-02-12T08:13:23;103007.29;;;19.16;32.55
73003;BME280;61184;54.356;-8.550;2023-02-12T08:15:48;103018.19;;;19.17;32.55
73003;BME280;61184;54.356;-8.550;2023-02-12T08:18:14;103018.53;;;19.15;32.56
73003;BME280;61184;54.356;-8.550;2023-02-12T08:20:39;103025.18;;;19.33;32.59
73003;BME280;61184;54.356;-8.550;2023-02-12T08:23:07;103030.28;;;19.29;32.65
73003;BME280;61184;54.356;-8.550;2023-02-12T08:25:38;103023.00;;;19.02;32.66
73003;BME280;61184;54.356;-8.550;2023-02-12T08:27:56;103013.97;;;19.09;32.56
73003;BME280;61184;54.356;-8.550;2023-02-12T08:30:21;103015.05;;;19.35;32.54
73003;BME280;61184;54.356;-8.550;2023-02-12T08:32:48;103012.57;;;19.22;32.68
73003;BME280;61184;54.356;-8.550;2023-02-12T08:35:26;103011.00;;;19.20;32.67
73003;BME280;61184;54.356;-8.550;2023-02-12T08:37:38;103007.21;;;19.25;32.61
73003;BME280;61184;54.356;-8.550;2023-02-12T08:40:04;103011.95;;;19.31;32.53
73003;BME280;61184;54.356;-8.550;2023-02-12T08:42:29;103009.68;;;19.32;32.53
73003;BME280;61184;54.356;-8.550;2023-02-12T08:44:54;103012.39;;;19.12;32.52
73003;BME280;61184;54.356;-8.550;2023-02-12T08:47:24;103005.91;;;19.41;32.46
73003;BME280;61184;54.356;-8.550;2023-02-12T08:49:46;103007.28;;;19.00;32.69
73003;BME280;61184;54.356;-8.550;2023-02-12T08:52:16;103006.88;;;19.25;32.67
73003;BME280;61184;54.356;-8.550;2023-02-12T08:54:39;103006.98;;;19.56;32.62
73003;BME280;61184;54.356;-8.550;2023-02-12T08:57:02;103007.62;;;19.65;32.49
73003;BME280;61184;54.356;-8.550;2023-02-12T08:59:28;103015.03;;;19.18;32.76
73003;BME280;61184;54.356;-8.550;2023-02-12T09:01:53;103009.50;;;19.22;32.74
73003;BME280;61184;54.356;-8.550;2023-02-12T09:04:20;103008.83;;;19.22;32.71
73003;BME280;61184;54.356;-8.550;2023-02-12T09:06:45;103011.49;;;19.56;32.58
73003;BME280;61184;54.356;-8.550;2023-02-12T09:09:09;103013.21;;;19.25;32.70
73003;BME280;61184;54.356;-8.550;2023-02-12T09:11:35;103011.74;;;19.30;32.63
73003;BME280;61184;54.356;-8.550;2023-02-12T09:14:03;103013.16;;;19.49;32.39
73003;BME280;61184;54.356;-8.550;2023-02-12T09:16:34;103017.39;;;19.01;32.67
73003;BME280;61184;54.356;-8.550;2023-02-12T09:18:51;103019.75;;;19.32;32.58
73003;BME280;61184;54.356;-8.550;2023-02-12T09:21:18;103018.81;;;18.95;32.75
73003;BME280;61184;54.356;-8.550;2023-02-12T09:23:43;103021.24;;;19.48;32.66
73003;BME280;61184;54.356;-8.550;2023-02-12T09:26:23;103018.38;;;19.08;32.56
73003;BME280;61184;54.356;-8.550;2023-02-12T09:28:39;103016.96;;;19.30;32.57
73003;BME280;61184;54.356;-8.550;2023-02-12T09:31:01;103018.51;;;19.35;32.52
73003;BME280;61184;54.356;-8.550;2023-02-12T09:33:24;103026.19;;;19.19;32.71
73003;BME280;61184;54.356;-8.550;2023-02-12T09:35:50;103026.81;;;19.28;32.95
73003;BME280;61184;54.356;-8.550;2023-02-12T09:38:16;103022.37;;;19.08;32.87
73003;BME280;61184;54.356;-8.550;2023-02-12T09:40:49;103026.02;;;19.23;32.96
73003;BME280;61184;54.356;-8.550;2023-02-12T09:43:15;103026.99;;;19.22;32.67
73003;BME280;61184;54.356;-8.550;2023-02-12T09:45:35;103025.09;;;19.19;32.71
73003;BME280;61184;54.356;-8.550;2023-02-12T09:48:04;103024.05;;;19.25;32.63
73003;BME280;61184;54.356;-8.550;2023-02-12T09:50:31;103022.33;;;18.96;32.68
73003;BME280;61184;54.356;-8.550;2023-02-12T09:52:48;103017.62;;;19.17;32.71
73003;BME280;61184;54.356;-8.550;2023-02-12T09:55:16;103010.14;;;19.48;32.62
73003;BME280;61184;54.356;-8.550;2023-02-12T09:57:39;103010.92;;;19.40;32.67
73003;BME280;61184;54.356;-8.550;2023-02-12T10:00:10;103002.24;;;19.27;32.56
73003;BME280;61184;54.356;-8.550;2023-02-12T10:02:39;103005.13;;;19.05;32.81
73003;BME280;61184;54.356;-8.550;2023-02-12T10:04:58;102994.89;;;19.25;32.58
73003;BME280;61184;54.356;-8.550;2023-02-12T10:07:39;102999.13;;;19.06;32.85
73003;BME280;61184;54.356;-8.550;2023-02-12T10:10:02;103002.89;;;19.40;32.70
73003;BME280;61184;54.356;-8.550;2023-02-12T10:12:19;103002.74;;;19.57;32.47
73003;BME280;61184;54.356;-8.550;2023-02-12T10:17:12;103011.33;;;19.13;32.71
73003;BME280;61184;54.356;-8.550;2023-02-12T10:19:41;103015.03;;;19.42;32.65
73003;BME280;61184;54.356;-8.550;2023-02-12T10:22:01;103017.90;;;19.04;32.85
73003;BME280;61184;54.356;-8.550;2023-02-12T10:24:31;103016.60;;;19.44;32.62
73003;BME280;61184;54.356;-8.550;2023-02-12T10:26:47;103018.88;;;18.88;32.76
73003;BME280;61184;54.356;-8.550;2023-02-12T10:29:16;103023.75;;;19.08;32.84
73003;BME280;61184;54.356;-8.550;2023-02-12T10:31:39;103019.81;;;19.36;32.72
73003;BME280;61184;54.356;-8.550;2023-02-12T10:34:12;103018.03;;;19.14;32.69
73003;BME280;61184;54.356;-8.550;2023-02-12T10:36:37;103013.22;;;19.17;32.65
73003;BME280;61184;54.356;-8.550;2023-02-12T10:39:05;103011.09;;;19.46;32.59
73003;BME280;61184;54.356;-8.550;2023-02-12T10:41:18;103007.11;;;19.35;32.76
73003;BME280;61184;54.356;-8.550;2023-02-12T10:43:44;103002.75;;;19.25;32.53
73003;BME280;61184;54.356;-8.550;2023-02-12T10:46:17;102998.50;;;19.39;32.69
73003;BME280;61184;54.356;-8.550;2023-02-12T10:48:39;103001.16;;;19.18;32.65
73003;BME280;61184;54.356;-8.550;2023-02-12T10:51:18;102993.87;;;19.28;32.52
73003;BME280;61184;54.356;-8.550;2023-02-12T10:53:31;102991.85;;;19.43;32.61
73003;BME280;61184;54.356;-8.550;2023-02-12T10:56:11;102999.20;;;19.10;32.77
73003;BME280;61184;54.356;-8.550;2023-02-12T10:58:22;102998.55;;;18.91;32.67
73003;BME280;61184;54.356;-8.550;2023-02-12T11:00:42;102999.38;;;19.03;32.52
73003;BME280;61184;54.356;-8.550;2023-02-12T11:05:34;102997.48;;;19.48;32.56
73003;BME280;61184;54.356;-8.550;2023-02-12T11:07:59;102995.56;;;19.47;32.55
73003;BME280;61184;54.356;-8.550;2023-02-12T11:10:30;102990.71;;;19.18;32.61
73003;BME280;61184;54.356;-8.550;2023-02-12T11:12:50;102987.13;;;19.25;32.56
73003;BME280;61184;54.356;-8.550;2023-02-12T11:15:18;102982.90;;;19.36;32.71
73003;BME280;61184;54.356;-8.550;2023-02-12T11:17:43;102982.31;;;18.99;32.58
73003;BME280;61184;54.356;-8.550;2023-02-12T11:20:23;102982.95;;;19.49;32.55
73003;BME280;61184;54.356;-8.550;2023-02-12T11:22:32;102983.90;;;19.23;32.56
73003;BME280;61184;54.356;-8.550;2023-02-12T11:25:00;102979.48;;;19.61;32.41
73003;BME280;61184;54.356;-8.550;2023-02-12T11:27:25;102984.09;;;18.84;32.77
73003;BME280;61184;54.356;-8.550;2023-02-12T11:32:16;102986.83;;;19.27;32.52
73003;BME280;61184;54.356;-8.550;2023-02-12T11:34:39;102987.37;;;19.16;32.64
73003;BME280;61184;54.356;-8.550;2023-02-12T11:37:13;102983.29;;;19.00;32.55
73003;BME280;61184;54.356;-8.550;2023-02-12T11:39:40;102992.88;;;19.04;32.51
73003;BME280;61184;54.356;-8.550;2023-02-12T11:41:58;102994.64;;;19.04;32.52
73003;BME280;61184;54.356;-8.550;2023-02-12T11:44:24;102988.11;;;19.32;32.45
73003;BME280;61184;54.356;-8.550;2023-02-12T11:46:49;102985.84;;;19.04;32.50
73003;BME280;61184;54.356;-8.550;2023-02-12T11:49:18;102986.40;;;19.20;32.29
73003;BME280;61184;54.356;-8.550;2023-02-12T11:51:39;102983.92;;;19.09;32.41
73003;BME280;61184;54.356;-8.550;2023-02-12T11:54:04;102979.50;;;19.59;32.39
73003;BME280;61184;54.356;-8.550;2023-02-12T11:56:46;102977.16;;;19.43;32.32
73003;BME280;61184;54.356;-8.550;2023-02-12T11:59:07;102977.69;;;19.40;32.34
73003;BME280;61184;54.356;-8.550;2023-02-12T12:01:22;102978.70;;;19.32;32.46
73003;BME280;61184;54.356;-8.550;2023-02-12T12:03:54;102980.80;;;19.31;32.47
73003;BME280;61184;54.356;-8.550;2023-02-12T12:06:23;102977.99;;;19.14;32.42
73003;BME280;61184;54.356;-8.550;2023-02-12T12:08:42;102974.91;;;19.43;32.35
73003;BME280;61184;54.356;-8.550;2023-02-12T12:11:09;102974.78;;;19.63;32.43
73003;BME280;61184;54.356;-8.550;2023-02-12T12:13:32;102969.12;;;19.21;32.35
73003;BME280;61184;54.356;-8.550;2023-02-12T12:15:59;102965.81;;;19.39;32.44
73003;BME280;61184;54.356;-8.550;2023-02-12T12:18:24;102962.18;;;19.28;32.60
73003;BME280;61184;54.356;-8.550;2023-02-12T12:20:48;102955.49;;;19.20;32.86
73003;BME280;61184;54.356;-8.550;2023-02-12T12:23:15;102951.72;;;19.10;33.25
73003;BME280;61184;54.356;-8.550;2023-02-12T12:25:39;102951.47;;;19.13;33.32
73003;BME280;61184;54.356;-8.550;2023-02-12T12:28:09;102949.29;;;19.30;33.37
73003;BME280;61184;54.356;-8.550;2023-02-12T12:30:41;102945.78;;;18.99;33.69
73003;BME280;61184;54.356;-8.550;2023-02-12T12:33:02;102944.49;;;19.94;32.58
73003;BME280;61184;54.356;-8.550;2023-02-12T12:35:27;102943.51;;;20.28;32.24
73003;BME280;61184;54.356;-8.550;2023-02-12T12:37:46;102933.90;;;20.38;32.04
73003;BME280;61184;54.356;-8.550;2023-02-12T12:40:24;102935.23;;;20.55;31.91
73003;BME280;61184;54.356;-8.550;2023-02-12T12:45:11;102940.39;;;20.75;31.42
73003;BME280;61184;54.356;-8.550;2023-02-12T12:47:32;102942.53;;;21.00;31.32
73003;BME280;61184;54.356;-8.550;2023-02-12T12:49:58;102948.13;;;20.74;31.43
73003;BME280;61184;54.356;-8.550;2023-02-12T12:52:30;102945.48;;;20.97;31.34